Time;durP1;ratioP1;P1;durP2;ratioP2;P2;SDS_P1;SDS_P2;PMS_P1;PMS_P2;Temp;Humidity;BMP_temperature;BMP_pressure;BME280_temperature;BME280_humidity;BME280_pressure;Samples;Min_cycle;Max_cycle;Signal;HPM_P1;HPM_P2
2021/11/16 00:01:11;;;;;;;21.88;16.50;;;12.20;63.90;;;;;;5073683;28;20035;-74
2021/11/16 00:03:36;;;;;;;22.95;16.60;;;12.20;63.60;;;;;;5073221;28;20377;-72
2021/11/16 00:06:02;;;;;;;24.25;16.52;;;12.20;63.40;;;;;;5073220;28;20029;-73
2021/11/16 00:08:28;;;;;;;20.02;16.00;;;12.10;63.10;;;;;;5071509;28;20055;-73
2021/11/16 00:10:54;;;;;;;21.13;15.98;;;12.20;63.40;;;;;;5071672;28;20039;-74
2021/11/16 00:13:20;;;;;;;22.10;16.70;;;12.20;63.50;;;;;;5069993;28;20056;-74
2021/11/16 00:15:46;;;;;;;22.50;16.67;;;12.10;63.30;;;;;;5069365;28;20174;-73
2021/11/16 00:18:13;;;;;;;23.23;17.27;;;12.20;63.20;;;;;;5072120;28;20075;-73
2021/11/16 00:20:42;;;;;;;22.30;16.23;;;12.20;63.20;;;;;;5073423;28;20039;-73
2021/11/16 00:23:16;;;;;;;23.08;17.02;;;12.20;63.20;;;;;;5073388;28;20028;-73
2021/11/16 00:25:43;;;;;;;22.17;16.50;;;12.20;63.10;;;;;;5072839;28;20082;-73
2021/11/16 00:28:09;;;;;;;21.00;16.13;;;12.20;63.00;;;;;;5072979;28;20412;-73
2021/11/16 00:30:35;;;;;;;20.77;16.17;;;12.20;63.10;;;;;;5073435;28;20040;-73
2021/11/16 00:33:00;;;;;;;22.75;16.92;;;12.20;63.20;;;;;;5073043;28;20017;-74
2021/11/16 00:35:26;;;;;;;23.08;17.35;;;12.10;63.30;;;;;;5073068;28;20388;-74
2021/11/16 00:37:52;;;;;;;22.67;16.75;;;12.20;63.10;;;;;;5072683;28;20045;-73
2021/11/16 00:40:19;;;;;;;22.05;16.88;;;12.20;62.80;;;;;;5073018;28;20051;-73
2021/11/16 00:42:48;;;;;;;22.52;15.93;;;12.20;62.50;;;;;;5072989;28;20024;-74
2021/11/16 00:45:15;;;;;;;21.85;16.33;;;12.20;62.20;;;;;;5073140;28;20020;-73
2021/11/16 00:47:42;;;;;;;20.65;15.70;;;12.20;61.90;;;;;;5073118;28;20024;-73
2021/11/16 00:50:09;;;;;;;22.98;16.70;;;12.20;61.50;;;;;;5072919;28;20105;-73
2021/11/16 00:52:35;;;;;;;21.52;15.80;;;12.20;61.70;;;;;;5072677;28;20044;-74
2021/11/16 00:55:00;;;;;;;24.60;16.02;;;12.20;61.40;;;;;;5073137;28;20024;-73
2021/11/16 00:57:26;;;;;;;22.30;16.25;;;12.20;61.60;;;;;;5072755;28;20025;-73
2021/11/16 00:59:52;;;;;;;21.20;15.65;;;12.20;61.90;;;;;;5072873;28;20111;-73
2021/11/16 01:02:18;;;;;;;21.50;15.10;;;12.20;61.50;;;;;;5072912;28;20031;-73
2021/11/16 01:04:51;;;;;;;19.17;14.77;;;12.10;61.60;;;;;;5072646;28;20111;-73
2021/11/16 01:07:18;;;;;;;20.40;15.23;;;12.10;61.10;;;;;;5071188;28;20039;-73
2021/11/16 01:09:45;;;;;;;20.58;15.25;;;12.10;61.70;;;;;;5072564;28;20033;-73
2021/11/16 01:12:13;;;;;;;17.95;14.23;;;12.10;62.00;;;;;;5072421;28;20032;-72
2021/11/16 01:14:39;;;;;;;22.55;15.85;;;12.10;62.00;;;;;;5072531;28;20404;-73
2021/11/16 01:17:05;;;;;;;20.55;14.65;;;12.10;61.70;;;;;;5072543;28;20048;-76
2021/11/16 01:19:31;;;;;;;19.17;14.95;;;12.00;61.50;;;;;;5072317;28;20053;-73
2021/11/16 01:21:57;;;;;;;20.42;14.98;;;12.10;61.90;;;;;;5072827;28;20107;-73
2021/11/16 01:24:22;;;;;;;23.98;15.02;;;12.10;61.30;;;;;;5072666;28;20433;-72
2021/11/16 01:26:49;;;;;;;19.73;14.38;;;12.00;61.50;;;;;;5072229;28;20032;-73
2021/11/16 01:29:18;;;;;;;20.10;14.93;;;12.00;61.60;;;;;;5072375;28;20064;-72
2021/11/16 01:31:44;;;;;;;19.83;15.20;;;12.00;62.40;;;;;;5072866;28;20039;-73
2021/11/16 01:34:11;;;;;;;19.67;14.75;;;12.00;62.00;;;;;;5072570;28;20376;-72
2021/11/16 01:36:37;;;;;;;20.05;14.95;;;12.00;62.20;;;;;;5072327;28;20028;-72
2021/11/16 01:39:04;;;;;;;19.27;15.15;;;12.00;62.10;;;;;;5072322;28;20044;-72
2021/11/16 01:41:31;;;;;;;19.73;15.30;;;12.00;61.50;;;;;;5071329;28;20120;-73
2021/11/16 01:43:58;;;;;;;21.77;14.75;;;12.00;61.40;;;;;;5072235;28;20024;-74
2021/11/16 01:46:24;;;;;;;18.88;14.48;;;12.00;61.50;;;;;;5072348;28;20039;-73
2021/11/16 01:48:53;;;;;;;21.58;14.93;;;12.00;61.40;;;;;;5072175;28;20476;-72
2021/11/16 01:51:22;;;;;;;19.60;14.60;;;12.00;61.40;;;;;;5075171;28;20032;-73
2021/11/16 01:53:52;;;;;;;22.10;14.35;;;11.90;61.00;;;;;;5075985;28;20111;-73
2021/11/16 01:56:17;;;;;;;20.23;14.57;;;11.90;60.90;;;;;;5074744;28;20036;-73
2021/11/16 01:58:43;;;;;;;20.65;15.55;;;11.90;61.30;;;;;;5072201;28;20044;-73
2021/11/16 02:01:09;;;;;;;20.50;15.50;;;11.90;61.20;;;;;;5072864;28;20028;-72
2021/11/16 02:03:35;;;;;;;20.25;14.85;;;11.90;61.40;;;;;;5073340;28;20035;-73
2021/11/16 02:06:18;;;;;;;21.30;15.68;;;12.00;61.40;;;;;;5075590;28;20025;-73
2021/11/16 02:08:44;;;;;;;20.27;14.82;;;12.00;61.50;;;;;;5075696;28;20507;-73
2021/11/16 02:11:09;;;;;;;21.27;15.00;;;11.90;61.50;;;;;;5075817;28;20024;-73
2021/11/16 02:13:35;;;;;;;19.90;14.85;;;11.90;61.40;;;;;;5075506;28;20035;-73
2021/11/16 02:16:02;;;;;;;19.65;14.95;;;11.90;61.50;;;;;;5075395;28;20381;-73
2021/11/16 02:18:27;;;;;;;16.95;13.93;;;11.90;61.20;;;;;;5075600;28;20053;-73
2021/11/16 02:20:53;;;;;;;19.58;15.50;;;11.90;61.00;;;;;;5075284;28;20501;-73
2021/11/16 02:23:20;;;;;;;21.65;16.42;;;11.90;60.80;;;;;;5075393;28;20031;-73
2021/11/16 02:25:48;;;;;;;20.50;15.55;;;11.90;60.90;;;;;;5075830;28;20025;-73
2021/11/16 02:28:18;;;;;;;22.30;16.70;;;11.90;60.90;;;;;;5075119;28;20028;-73
2021/11/16 02:30:45;;;;;;;21.25;16.30;;;11.90;60.60;;;;;;5075048;28;20031;-73
2021/11/16 02:33:11;;;;;;;18.88;14.77;;;11.90;60.60;;;;;;5073626;28;20067;-72
2021/11/16 02:35:37;;;;;;;22.70;16.40;;;11.90;60.20;;;;;;5075102;28;20025;-74
2021/11/16 02:38:03;;;;;;;18.85;14.68;;;11.90;60.20;;;;;;5075126;28;20405;-73
2021/11/16 02:40:29;;;;;;;23.45;15.80;;;11.90;60.10;;;;;;5075068;28;20024;-72
2021/11/16 02:42:55;;;;;;;21.13;15.48;;;11.80;60.50;;;;;;5074805;28;20032;-72
2021/11/16 02:45:22;;;;;;;19.65;15.57;;;11.90;61.20;;;;;;5075303;28;20035;-72
2021/11/16 02:47:48;;;;;;;20.25;16.20;;;11.80;61.20;;;;;;5075246;28;20033;-73
2021/11/16 02:50:15;;;;;;;20.15;15.43;;;11.90;61.40;;;;;;5074824;28;20058;-73
2021/11/16 02:52:41;;;;;;;22.38;16.15;;;11.80;61.70;;;;;;5074700;28;20078;-72
2021/11/16 02:55:08;;;;;;;21.58;15.52;;;11.80;61.80;;;;;;5075044;28;20029;-74
2021/11/16 02:57:35;;;;;;;23.65;16.33;;;11.80;61.70;;;;;;5074552;28;20037;-73
2021/11/16 03:00:08;;;;;;;22.92;16.25;;;11.70;61.90;;;;;;5074901;28;20020;-73
2021/11/16 03:02:33;;;;;;;22.58;15.52;;;11.70;61.90;;;;;;5073861;28;20103;-72
2021/11/16 03:04:59;;;;;;;20.88;16.15;;;11.60;62.10;;;;;;5073822;28;20521;-73
2021/11/16 03:07:33;;;;;;;20.85;15.77;;;11.50;62.60;;;;;;5074235;28;20056;-73
2021/11/16 03:09:59;;;;;;;23.92;16.60;;;11.50;62.10;;;;;;5073313;28;20029;-73
2021/11/16 03:12:30;;;;;;;23.63;16.42;;;11.50;62.30;;;;;;5074772;28;20078;-73
2021/11/16 03:14:57;;;;;;;21.65;16.20;;;11.50;62.70;;;;;;5074551;28;20024;-73
2021/11/16 03:17:24;;;;;;;21.48;16.52;;;11.50;62.50;;;;;;5074389;28;20039;-73
2021/11/16 03:19:51;;;;;;;20.60;16.63;;;11.50;62.80;;;;;;5074398;28;20132;-73
2021/11/16 03:22:16;;;;;;;20.45;16.77;;;11.50;62.80;;;;;;5074576;28;20020;-74
2021/11/16 03:24:43;;;;;;;21.10;16.67;;;11.50;63.10;;;;;;5074488;28;20023;-73
2021/11/16 03:27:10;;;;;;;22.60;16.38;;;11.40;62.40;;;;;;5074387;28;20091;-72
2021/11/16 03:29:42;;;;;;;22.45;16.80;;;11.40;62.80;;;;;;5074207;28;20036;-73
2021/11/16 03:32:11;;;;;;;19.88;16.67;;;11.40;63.40;;;;;;5074412;28;20496;-73
2021/11/16 03:34:40;;;;;;;23.15;17.25;;;11.40;63.40;;;;;;5074314;28;20389;-73
2021/11/16 03:37:06;;;;;;;23.65;17.10;;;11.50;64.80;;;;;;5074142;28;20055;-73
2021/11/16 03:39:32;;;;;;;22.65;17.25;;;11.50;64.20;;;;;;5074132;28;20469;-72
2021/11/16 03:41:58;;;;;;;23.95;17.58;;;11.50;64.20;;;;;;5074075;28;20054;-72
2021/11/16 03:44:26;;;;;;;25.77;17.35;;;11.40;64.70;;;;;;5074097;28;20095;-73
2021/11/16 03:46:52;;;;;;;24.77;16.80;;;11.40;65.50;;;;;;5073028;28;20032;-72
2021/11/16 03:49:18;;;;;;;24.90;17.98;;;11.40;65.80;;;;;;5072881;28;20035;-73
2021/11/16 03:51:45;;;;;;;22.70;16.70;;;11.50;66.30;;;;;;5072560;28;20463;-72
2021/11/16 03:54:11;;;;;;;22.00;17.00;;;11.50;66.20;;;;;;5073238;28;20027;-73
2021/11/16 03:56:37;;;;;;;21.90;17.00;;;11.40;66.10;;;;;;5072687;28;20025;-73
2021/11/16 03:59:04;;;;;;;22.10;17.33;;;11.50;66.40;;;;;;5071792;28;20579;-73
2021/11/16 04:01:30;;;;;;;22.35;17.05;;;11.50;67.10;;;;;;5072004;28;20420;-73
2021/11/16 04:03:58;;;;;;;31.52;17.95;;;11.50;67.40;;;;;;5072391;28;20025;-73
2021/11/16 04:06:24;;;;;;;21.90;17.13;;;11.50;67.40;;;;;;5072329;28;20030;-74
2021/11/16 04:08:50;;;;;;;20.90;16.75;;;11.60;67.00;;;;;;5073101;28;20031;-73
2021/11/16 04:11:16;;;;;;;23.85;17.50;;;11.60;66.30;;;;;;5073530;28;20032;-73
2021/11/16 04:13:41;;;;;;;23.10;17.60;;;11.60;67.00;;;;;;5071927;28;20472;-73
2021/11/16 04:16:07;;;;;;;21.95;17.65;;;11.60;65.30;;;;;;5073254;28;20033;-73
2021/11/16 04:18:33;;;;;;;25.00;18.95;;;11.50;64.80;;;;;;5072896;28;20598;-72
2021/11/16 04:20:59;;;;;;;21.38;17.92;;;11.60;65.40;;;;;;5073311;28;20039;-73
2021/11/16 04:23:26;;;;;;;22.83;17.23;;;11.60;65.90;;;;;;5073559;28;20028;-73
2021/11/16 04:25:53;;;;;;;20.83;16.90;;;11.60;65.70;;;;;;5072998;28;20028;-72
2021/11/16 04:28:19;;;;;;;23.90;18.00;;;11.60;65.70;;;;;;5073095;28;20037;-72
2021/11/16 04:30:47;;;;;;;22.08;17.13;;;11.60;65.40;;;;;;5071832;28;20093;-73
2021/11/16 04:33:14;;;;;;;22.63;17.75;;;11.60;64.00;;;;;;5073226;28;20028;-73
2021/11/16 04:35:41;;;;;;;22.15;18.02;;;11.60;64.40;;;;;;5073105;28;20024;-72
2021/11/16 04:38:09;;;;;;;21.58;18.02;;;11.60;63.70;;;;;;5073068;28;20477;-72
2021/11/16 04:40:38;;;;;;;24.63;17.92;;;11.60;63.60;;;;;;5073086;28;20482;-72
2021/11/16 04:43:08;;;;;;;21.02;17.45;;;11.60;64.10;;;;;;5073172;28;20046;-72
2021/11/16 04:45:35;;;;;;;24.48;17.85;;;11.60;64.60;;;;;;5072815;28;20031;-72
2021/11/16 04:48:05;;;;;;;22.65;17.95;;;11.60;64.50;;;;;;5072843;28;20469;-72
2021/11/16 05:04:08;;;;;;;26.17;19.33;;;11.50;72.60;;;;;;5072669;28;20043;-74
2021/11/16 05:06:33;;;;;;;24.15;19.20;;;11.40;72.80;;;;;;5072898;28;20032;-73
2021/11/16 05:08:59;;;;;;;28.50;20.05;;;11.40;72.10;;;;;;5072665;28;20028;-73
2021/11/16 05:11:25;;;;;;;25.80;19.55;;;11.40;72.10;;;;;;5071246;28;20459;-73
2021/11/16 05:13:52;;;;;;;29.65;19.13;;;11.40;72.00;;;;;;5071124;28;20022;-73
2021/11/16 05:16:20;;;;;;;27.02;19.45;;;11.40;72.60;;;;;;5071039;28;20640;-72
2021/11/16 05:18:47;;;;;;;29.15;19.80;;;11.40;73.10;;;;;;5070572;28;20060;-73
2021/11/16 05:21:13;;;;;;;24.27;19.15;;;11.40;72.50;;;;;;5072873;28;20457;-73
2021/11/16 05:23:47;;;;;;;28.70;19.48;;;11.40;72.70;;;;;;5072604;28;20032;-72
2021/11/16 05:26:12;;;;;;;25.55;20.02;;;11.50;73.90;;;;;;5075107;28;20052;-73
2021/11/16 05:28:38;;;;;;;25.45;19.90;;;11.40;75.20;;;;;;5075143;28;20508;-73
2021/11/16 05:31:04;;;;;;;26.85;20.63;;;11.50;77.00;;;;;;5076581;28;20024;-72
2021/11/16 05:33:30;;;;;;;25.92;20.30;;;11.40;76.70;;;;;;5076609;28;20085;-74
2021/11/16 05:35:59;;;;;;;27.42;20.50;;;11.50;77.00;;;;;;5076488;28;20070;-73
2021/11/16 05:38:36;;;;;;;28.13;21.00;;;11.40;77.20;;;;;;5076506;28;20173;-73
2021/11/16 05:41:03;;;;;;;26.05;19.92;;;11.40;77.80;;;;;;5076121;28;20039;-73
2021/11/16 05:43:29;;;;;;;28.02;20.50;;;11.40;77.50;;;;;;5076198;28;20024;-74
2021/11/16 05:45:55;;;;;;;27.48;20.20;;;11.40;77.80;;;;;;5076101;28;20052;-72
2021/11/16 05:48:23;;;;;;;27.52;20.05;;;11.40;78.10;;;;;;5075140;28;20146;-73
2021/11/16 05:50:49;;;;;;;28.77;19.48;;;11.40;78.10;;;;;;5075141;28;20473;-75
2021/11/16 05:53:15;;;;;;;24.98;19.80;;;11.40;78.00;;;;;;5076049;28;20032;-75
2021/11/16 05:55:43;;;;;;;28.30;20.05;;;11.40;78.40;;;;;;5075871;28;20146;-76
2021/11/16 05:58:09;;;;;;;26.23;20.70;;;11.40;78.40;;;;;;5075464;28;20366;-75
2021/11/16 06:00:35;;;;;;;26.05;20.13;;;11.40;78.60;;;;;;5075151;28;20031;-75
2021/11/16 06:03:01;;;;;;;26.33;20.55;;;11.40;78.90;;;;;;5075330;28;20099;-75
2021/11/16 06:05:26;;;;;;;29.13;20.95;;;11.40;79.00;;;;;;5075962;28;20077;-75
2021/11/16 06:07:52;;;;;;;26.48;20.05;;;11.40;79.10;;;;;;5075766;28;20429;-74
2021/11/16 06:10:18;;;;;;;27.67;20.08;;;11.40;78.80;;;;;;5075772;28;20055;-74
2021/11/16 06:12:43;;;;;;;26.67;19.42;;;11.40;78.90;;;;;;5075815;28;20025;-75
2021/11/16 06:15:09;;;;;;;29.75;20.70;;;11.40;77.40;;;;;;5076055;28;20020;-75
2021/11/16 06:17:40;;;;;;;29.08;20.48;;;11.40;78.00;;;;;;5075785;28;20627;-75
2021/11/16 06:20:06;;;;;;;32.70;21.77;;;11.40;77.30;;;;;;5072847;28;20052;-74
2021/11/16 06:22:32;;;;;;;30.83;22.08;;;11.40;77.50;;;;;;5073952;28;20063;-74
2021/11/16 06:24:57;;;;;;;31.50;23.30;;;11.40;78.10;;;;;;5072303;28;20017;-74
2021/11/16 06:27:23;;;;;;;33.17;22.88;;;11.40;78.20;;;;;;5073485;28;20070;-75
2021/11/16 06:29:49;;;;;;;35.10;22.40;;;11.40;77.10;;;;;;5071395;28;20134;-74
2021/11/16 06:32:14;;;;;;;36.20;24.38;;;11.40;77.40;;;;;;5073982;28;20162;-74
2021/11/16 06:34:40;;;;;;;34.38;22.65;;;11.40;78.40;;;;;;5074409;28;20028;-74
2021/11/16 06:37:06;;;;;;;35.53;23.77;;;11.50;78.40;;;;;;5073965;28;20035;-74
2021/11/16 06:39:32;;;;;;;31.08;22.45;;;11.50;78.00;;;;;;5074257;28;20024;-74
2021/11/16 06:42:01;;;;;;;34.40;23.48;;;11.40;77.80;;;;;;5074665;28;20380;-73
2021/11/16 06:44:26;;;;;;;34.63;23.83;;;11.40;77.20;;;;;;5074112;28;20039;-74
2021/11/16 06:46:54;;;;;;;34.88;23.23;;;11.40;76.60;;;;;;5073796;28;20046;-73
2021/11/16 06:49:20;;;;;;;39.25;23.90;;;11.40;77.20;;;;;;5073581;28;20074;-73
2021/11/16 06:51:48;;;;;;;33.50;21.92;;;11.40;77.50;;;;;;5073585;28;20501;-75
2021/11/16 06:54:17;;;;;;;29.15;22.48;;;11.50;77.60;;;;;;5073839;28;20020;-74
2021/11/16 06:56:48;;;;;;;31.15;22.27;;;11.50;78.30;;;;;;5073931;28;20054;-75
2021/11/16 06:59:15;;;;;;;33.47;22.60;;;11.50;78.40;;;;;;5073745;28;20482;-75
2021/11/16 07:01:41;;;;;;;35.25;23.85;;;11.50;78.70;;;;;;5073846;28;20028;-75
2021/11/16 07:04:10;;;;;;;30.13;21.85;;;11.50;79.20;;;;;;5073879;28;20468;-76
2021/11/16 07:06:41;;;;;;;49.22;23.00;;;11.50;79.30;;;;;;5073595;28;20031;-75
2021/11/16 07:09:08;;;;;;;32.30;23.20;;;11.50;78.90;;;;;;5073842;28;20461;-75
2021/11/16 07:11:52;;;;;;;32.13;22.73;;;11.50;78.70;;;;;;5073912;28;20033;-76
2021/11/16 07:14:20;;;;;;;33.90;22.40;;;11.60;79.10;;;;;;5072397;28;20119;-75
2021/11/16 07:17:07;;;;;;;27.83;22.10;;;11.50;79.40;;;;;;5072715;28;20031;-75
2021/11/16 07:19:55;;;;;;;32.35;21.40;;;11.50;78.90;;;;;;5022479;28;1180186;-76
2021/11/16 07:22:28;;;;;;;33.50;22.58;;;11.50;78.30;;;;;;5053862;28;20045;-74
2021/11/16 07:25:00;;;;;;;28.33;21.60;;;11.50;78.80;;;;;;5058857;28;20087;-73
2021/11/16 07:27:44;;;;;;;31.27;22.98;;;11.60;79.30;;;;;;5066443;28;20060;-75
2021/11/16 07:30:19;;;;;;;32.15;22.33;;;11.60;79.60;;;;;;5066782;28;20036;-75
2021/11/16 07:32:47;;;;;;;41.20;24.15;;;11.60;79.40;;;;;;5059027;28;20024;-75
2021/11/16 07:35:17;;;;;;;29.63;21.60;;;11.60;78.50;;;;;;5053753;28;20033;-74
2021/11/16 07:37:47;;;;;;;33.53;24.48;;;11.60;79.70;;;;;;5054099;28;20441;-75
2021/11/16 07:40:16;;;;;;;37.58;24.85;;;;;;;;;;5054075;28;20098;-75
2021/11/16 07:42:51;;;;;;;31.83;23.63;;;11.60;66.50;;;;;;5053356;28;20107;-74
2021/11/16 07:45:18;;;;;;;31.73;23.00;;;11.60;67.40;;;;;;5052454;28;20017;-75
2021/11/16 07:47:49;;;;;;;31.60;22.40;;;11.60;67.50;;;;;;5052852;28;20083;-76
2021/11/16 07:50:39;;;;;;;29.58;22.15;;;11.70;67.10;;;;;;5052264;28;20450;-76
2021/11/16 07:53:19;;;;;;;27.30;21.98;;;11.70;67.80;;;;;;5052082;28;20435;-73
2021/11/16 07:55:56;;;;;;;27.83;21.90;;;11.70;67.60;;;;;;5053580;28;20017;-76
2021/11/16 07:58:26;;;;;;;29.90;23.83;;;11.70;67.30;;;;;;5052918;28;20037;-76
2021/11/16 08:00:53;;;;;;;34.22;23.08;;;12.00;69.50;;;;;;5053724;28;20045;-74
2021/11/16 08:03:23;;;;;;;33.83;22.48;;;11.80;67.40;;;;;;5053853;28;20021;-75
2021/11/16 08:13:55;;;;;;;32.50;23.17;;;11.80;66.00;;;;;;5052867;28;20045;-75
2021/11/16 08:16:21;;;;;;;;;;;11.90;67.10;;;;;;5053404;28;20456;-76
2021/11/16 08:18:59;;;;;;;27.08;20.80;;;12.00;68.90;;;;;;5053055;28;20000;-76
2021/11/16 08:21:26;;;;;;;27.80;20.88;;;12.10;68.70;;;;;;5053725;28;20477;-76
2021/11/16 08:24:04;;;;;;;26.30;18.83;;;12.10;68.90;;;;;;5053578;28;20061;-75
2021/11/16 08:26:35;;;;;;;27.67;19.45;;;12.00;67.30;;;;;;5053225;28;20087;-75
2021/11/16 08:29:02;;;;;;;26.52;19.15;;;12.10;66.50;;;;;;5067975;28;20029;-75
2021/11/16 08:31:34;;;;;;;22.40;17.10;;;12.20;71.90;;;;;;5053141;28;20048;-75
2021/11/16 08:34:00;;;;;;;21.75;16.15;;;12.10;76.00;;;;;;5053505;28;20025;-75
2021/11/16 08:36:28;;;;;;;22.35;16.58;;;;;;;;;;5053864;28;20128;-76
2021/11/16 08:38:59;;;;;;;27.88;16.55;;;12.20;63.90;;;;;;5053232;28;20043;-75
2021/11/16 08:41:31;;;;;;;21.95;15.32;;;12.30;64.30;;;;;;5052596;28;20032;-75
2021/11/16 08:44:34;;;;;;;19.48;15.70;;;12.30;63.70;;;;;;5052541;28;20037;-75
2021/11/16 08:47:11;;;;;;;24.83;16.45;;;12.30;63.30;;;;;;5011094;28;20040;-76
2021/11/16 08:49:41;;;;;;;20.33;15.45;;;12.40;63.10;;;;;;5053022;28;20017;-76
2021/11/16 08:52:15;;;;;;;26.25;16.02;;;12.30;63.30;;;;;;5053176;28;20025;-74
2021/11/16 08:55:02;;;;;;;24.13;15.30;;;12.40;64.60;;;;;;5053100;28;20021;-76
2021/11/16 08:57:30;;;;;;;24.65;15.98;;;12.60;69.10;;;;;;5052638;28;20044;-75
2021/11/16 08:59:57;;;;;;;20.88;16.92;;;12.50;77.50;;;;;;5052872;28;20107;-76
2021/11/16 09:02:26;;;;;;;23.30;16.38;;;12.50;64.20;;;;;;5053154;28;20496;-76
2021/11/16 09:04:52;;;;;;;22.50;15.95;;;12.50;63.90;;;;;;5053223;28;20052;-75
2021/11/16 09:07:30;;;;;;;21.13;15.93;;;12.70;70.80;;;;;;5052968;28;20575;-76
2021/11/16 09:09:59;;;;;;;22.10;15.63;;;;;;;;;;5053210;28;20021;-75
2021/11/16 09:12:54;;;;;;;21.92;16.85;;;12.60;62.70;;;;;;5053085;28;20040;-75
2021/11/16 09:15:34;;;;;;;21.70;16.30;;;12.60;63.40;;;;;;5050773;28;20387;-75
2021/11/16 09:18:38;;;;;;;19.05;15.57;;;12.70;62.40;;;;;;5052642;28;20063;-76
2021/11/16 09:21:04;;;;;;;20.23;16.25;;;12.70;62.40;;;;;;5053282;28;20033;-76
2021/11/16 09:23:33;;;;;;;23.73;16.75;;;12.70;61.90;;;;;;5052983;28;20382;-75
2021/11/16 09:26:33;;;;;;;22.95;17.95;;;12.80;62.50;;;;;;5053074;28;20025;-75
2021/11/16 09:29:02;;;;;;;26.65;16.77;;;12.80;62.30;;;;;;5052854;28;20017;-76
2021/11/16 09:31:38;;;;;;;20.25;16.00;;;12.90;61.00;;;;;;5052587;28;20105;-76
2021/11/16 09:34:27;;;;;;;23.83;16.23;;;12.90;61.80;;;;;;5052935;28;20017;-76
2021/11/16 09:36:52;;;;;;;22.00;16.58;;;12.90;61.00;;;;;;5052700;28;20031;-74
2021/11/16 09:39:28;;;;;;;21.63;16.85;;;12.90;60.90;;;;;;5052712;28;20386;-76
2021/11/16 09:42:01;;;;;;;21.17;16.27;;;12.90;61.10;;;;;;5052739;28;20037;-75
2021/11/16 09:44:30;;;;;;;22.27;17.13;;;12.90;61.40;;;;;;5052462;28;20039;-75
2021/11/16 09:46:58;;;;;;;24.98;16.73;;;12.90;61.20;;;;;;5052748;28;20028;-76
2021/11/16 09:49:33;;;;;;;21.13;16.50;;;13.00;60.80;;;;;;5052572;28;20454;-75
2021/11/16 09:52:01;;;;;;;21.25;16.17;;;13.00;60.70;;;;;;5052644;28;20071;-74
2021/11/16 09:54:27;;;;;;;22.05;16.20;;;13.00;60.90;;;;;;5052929;28;20400;-76
2021/11/16 09:57:42;;;;;;;20.52;16.85;;;12.90;60.90;;;;;;5051338;28;20035;-75
2021/11/16 10:00:08;;;;;;;23.63;16.15;;;13.00;60.60;;;;;;5047515;28;20401;-76
2021/11/16 10:02:34;;;;;;;21.80;16.00;;;13.00;60.40;;;;;;5052140;28;20529;-76
2021/11/16 10:05:08;;;;;;;20.20;16.15;;;13.00;60.40;;;;;;5052322;28;20051;-74
2021/11/16 10:07:34;;;;;;;20.73;16.58;;;13.00;60.70;;;;;;5050911;28;20021;-76
2021/11/16 10:10:01;;;;;;;25.90;16.50;;;13.00;60.40;;;;;;5051183;28;20060;-76
2021/11/16 10:12:46;;;;;;;20.88;16.38;;;13.10;60.70;;;;;;5055275;28;20044;-74
2021/11/16 10:15:14;;;;;;;19.98;15.52;;;13.10;61.00;;;;;;5056429;28;20074;-76
2021/11/16 10:17:44;;;;;;;20.27;15.82;;;13.10;60.60;;;;;;5056012;28;20036;-76
2021/11/16 10:20:11;;;;;;;20.45;16.27;;;13.30;74.90;;;;;;5054273;28;20106;-77
2021/11/16 10:22:39;;;;;;;24.38;17.42;;;13.30;71.00;;;;;;5055776;28;20093;-74
2021/11/16 10:25:09;;;;;;;24.88;17.92;;;;;;;;;;5055835;28;20025;-76
2021/11/16 10:27:36;;;;;;;22.10;17.73;;;13.30;86.30;;;;;;5055737;28;20143;-75
2021/11/16 10:30:10;;;;;;;18.45;16.38;;;13.20;81.60;;;;;;5055520;28;20025;-75
2021/11/16 10:32:37;;;;;;;21.95;16.90;;;13.30;82.60;;;;;;5055429;28;20100;-75
2021/11/16 10:35:09;;;;;;;21.05;16.75;;;13.30;78.90;;;;;;5055588;28;20028;-75
2021/11/16 10:38:05;;;;;;;23.30;17.20;;;13.30;79.50;;;;;;5055466;28;20504;-76
2021/11/16 10:40:31;;;;;;;22.40;16.65;;;13.30;77.10;;;;;;5043021;28;20063;-76
2021/11/16 10:43:01;;;;;;;21.58;16.38;;;13.30;78.00;;;;;;5055673;28;20509;-75
2021/11/16 10:45:30;;;;;;;22.15;16.15;;;13.30;77.80;;;;;;5055400;28;20070;-74
2021/11/16 10:47:59;;;;;;;22.13;16.73;;;13.40;80.50;;;;;;5055580;28;20025;-75
2021/11/16 10:50:26;;;;;;;22.08;17.20;;;13.30;78.70;;;;;;5055178;28;20021;-75
2021/11/16 10:52:58;;;;;;;21.58;17.25;;;13.30;77.00;;;;;;5055378;28;20474;-75
2021/11/16 10:55:38;;;;;;;22.17;17.07;;;13.40;76.60;;;;;;5054644;28;20410;-75
2021/11/16 10:58:05;;;;;;;21.33;16.58;;;13.40;76.80;;;;;;5055016;28;20379;-75
2021/11/16 11:00:33;;;;;;;23.20;17.35;;;13.40;77.80;;;;;;5053062;28;20025;-75
2021/11/16 11:03:20;;;;;;;20.38;16.52;;;13.40;76.20;;;;;;5056224;28;20032;-75
2021/11/16 11:05:48;;;;;;;20.65;16.17;;;13.40;72.30;;;;;;5074723;28;20024;-75
2021/11/16 11:08:28;;;;;;;22.85;16.58;;;13.40;74.70;;;;;;5071173;28;20040;-76
2021/11/16 11:10:53;;;;;;;21.35;15.82;;;13.40;78.20;;;;;;5054110;28;20031;-75
2021/11/16 11:13:25;;;;;;;20.38;16.15;;;13.40;77.00;;;;;;5053542;28;20029;-74
2021/11/16 11:15:51;;;;;;;20.50;16.48;;;13.50;77.80;;;;;;5064103;28;20008;-75
2021/11/16 11:18:31;;;;;;;21.13;16.38;;;13.50;76.70;;;;;;5073518;28;20071;-75
2021/11/16 11:20:57;;;;;;;22.30;16.60;;;13.50;76.80;;;;;;5074298;28;20033;-76
2021/11/16 11:23:29;;;;;;;23.25;16.90;;;13.50;77.20;;;;;;5073168;28;20461;-75
2021/11/16 11:29:15;;;;;;;;;;;13.60;76.60;;;;;;5032154;28;20030;-75
2021/11/16 11:31:45;;;;;;;21.65;16.52;;;13.60;86.10;;;;;;4927576;28;19920;-75
2021/11/16 11:34:12;;;;;;;23.17;17.38;;;13.60;80.20;;;;;;5053057;28;20547;-75
2021/11/16 11:36:38;;;;;;;24.23;17.25;;;13.60;79.60;;;;;;5054064;28;20481;-75
2021/11/16 11:39:19;;;;;;;20.75;16.15;;;13.60;78.80;;;;;;5053923;28;20037;-75
2021/11/16 11:41:56;;;;;;;21.15;17.02;;;13.60;80.10;;;;;;5054162;28;20017;-76
2021/11/16 11:44:23;;;;;;;21.95;16.65;;;13.70;85.20;;;;;;5053908;28;20506;-76
2021/11/16 11:46:54;;;;;;;22.85;17.27;;;13.70;77.90;;;;;;5053918;28;20130;-76
2021/11/16 11:49:20;;;;;;;20.70;16.27;;;13.70;80.00;;;;;;5053829;28;20021;-75
2021/11/16 11:51:46;;;;;;;20.15;16.15;;;13.80;81.00;;;;;;5053929;28;20364;-75
2021/11/16 11:54:14;;;;;;;21.02;16.17;;;13.80;79.80;;;;;;5054264;28;20525;-75
2021/11/16 11:56:40;;;;;;;22.48;17.52;;;13.80;79.40;;;;;;5053993;28;20108;-75
2021/11/16 11:59:06;;;;;;;20.90;16.58;;;;;;;;;;5053644;28;20040;-75
2021/11/16 12:01:33;;;;;;;20.73;17.20;;;13.90;66.30;;;;;;5054079;28;20084;-76
2021/11/16 12:03:59;;;;;;;22.42;16.13;;;13.90;67.00;;;;;;5053857;28;20079;-75
2021/11/16 12:06:26;;;;;;;22.17;18.23;;;13.90;66.80;;;;;;5053938;28;20021;-75
2021/11/16 12:08:57;;;;;;;23.58;16.77;;;14.00;66.80;;;;;;5053833;28;20063;-75
2021/11/16 12:11:23;;;;;;;23.98;18.00;;;14.00;67.00;;;;;;5053715;28;20025;-75
2021/11/16 12:13:51;;;;;;;21.15;17.83;;;14.10;66.40;;;;;;5053532;28;20504;-75
2021/11/16 12:16:22;;;;;;;21.83;17.13;;;14.00;65.90;;;;;;5053761;28;20020;-75
2021/11/16 12:18:50;;;;;;;25.17;17.75;;;14.00;65.80;;;;;;5035455;28;20074;-75
2021/11/16 12:21:27;;;;;;;20.88;16.65;;;14.10;66.20;;;;;;5053545;28;20027;-74
2021/11/16 12:23:57;;;;;;;22.40;17.27;;;14.00;66.20;;;;;;5053533;28;20063;-75
2021/11/16 12:26:24;;;;;;;21.90;17.55;;;14.00;66.00;;;;;;5053458;28;20032;-76
2021/11/16 12:28:50;;;;;;;22.27;17.35;;;14.00;65.80;;;;;;5053225;28;20425;-73
2021/11/16 12:31:30;;;;;;;24.13;18.52;;;14.00;65.60;;;;;;5052071;28;20115;-75
2021/11/16 12:33:58;;;;;;;22.63;16.80;;;14.00;66.10;;;;;;5052983;28;20436;-75
2021/11/16 12:36:32;;;;;;;23.05;17.90;;;14.00;66.30;;;;;;5052989;28;20025;-74
2021/11/16 12:39:20;;;;;;;23.10;18.10;;;14.00;66.00;;;;;;5053012;28;20037;-74
2021/11/16 12:41:52;;;;;;;22.73;16.60;;;14.00;65.90;;;;;;5052896;28;20021;-75
2021/11/16 12:44:46;;;;;;;20.75;17.10;;;14.00;65.50;;;;;;5053440;28;20024;-75
2021/11/16 12:47:14;;;;;;;23.63;17.67;;;14.00;65.60;;;;;;5052468;28;20079;-76
2021/11/16 12:49:43;;;;;;;23.17;17.80;;;14.00;65.50;;;;;;5052637;28;20469;-75
2021/11/16 12:52:18;;;;;;;25.80;17.67;;;14.00;65.50;;;;;;5053216;28;20021;-75
2021/11/16 12:54:44;;;;;;;21.67;17.92;;;13.90;65.50;;;;;;5048004;28;20052;-75
2021/11/16 12:57:16;;;;;;;24.65;17.73;;;13.90;65.60;;;;;;5050286;28;20537;-76
2021/11/16 12:59:45;;;;;;;23.42;17.42;;;13.80;65.20;;;;;;5051448;28;20066;-75
2021/11/16 13:02:27;;;;;;;24.02;18.48;;;13.80;65.10;;;;;;5052542;28;20426;-75
2021/11/16 13:04:55;;;;;;;24.70;18.33;;;13.80;65.40;;;;;;5052534;28;20067;-77